Stations météo

Publicité
Epinal, France (7173): Température de l'air & dewpoint: 20.05.2019 17:00:00 - 26.05.2019 17:00:00 (CEST)Epinal, France (7173): Vitesse du vent & gusts: 20.05.2019 17:00:00 - 26.05.2019 17:00:00 (CEST)Epinal, France (7173): Direction du vent: 20.05.2019 17:00:00 - 26.05.2019 17:00:00 (CEST)Epinal, France (7173): Ensoleillement: 20.05.2019 17:00:00 - 26.05.2019 17:00:00 (CEST)Epinal, France (7173): Quantités de précipitations: 20.05.2019 17:00:00 - 26.05.2019 17:00:00 (CEST)
Date & Time tt [°C] td [°C] ff [km/h] ff [knt] fx [km/h] fx [knt] dd sd [min] rr [mm]
26.05.2019 17:00:00 - - - - - - - - -
26.05.2019 16:00:00 20,6 6,5 9 5 24 13 NNW 54 0,0
26.05.2019 15:00:00 20,9 7,8 9 5 18 10 WNW 48 0,0
26.05.2019 14:00:00 19,6 7,7 8 4 16 9 ENE 60 -
26.05.2019 13:00:00 19,2 7,0 9 5 22 12 NNW 60 0,0
26.05.2019 12:00:00 18,2 8,2 9 5 18 10 NNE 60 0,0
26.05.2019 11:00:00 17,0 9,2 8 4 16 9 N 48 0,0
26.05.2019 10:00:00 15,6 9,9 5 3 11 6 NW 54 0,0
26.05.2019 09:00:00 15,0 10,0 2 1 5 3 N 60 0,0
26.05.2019 08:00:00 13,7 9,3 0 0 4 2 N 60 -
26.05.2019 07:00:00 9,3 8,4 0 0 4 2 N 18 0,0
26.05.2019 06:00:00 8,2 7,8 0 0 4 2 N 0 0,0
26.05.2019 05:00:00 7,7 7,1 0 0 4 2 N 0 0,0
26.05.2019 04:00:00 8,8 7,9 4 2 4 2 ESE 0 0,0
26.05.2019 03:00:00 8,7 7,3 0 0 4 2 N 0 0,0
26.05.2019 02:00:00 10,5 8,4 0 0 4 2 N 0 -
26.05.2019 01:00:00 13,0 8,5 2 1 8 4 NW 0 0,0
26.05.2019 00:00:00 13,6 9,0 2 1 5 3 WNW 0 0,0
25.05.2019 23:00:00 14,7 9,3 2 1 8 4 WSW 0 0,0
25.05.2019 22:00:00 15,2 9,1 5 3 18 10 WNW 0 0,0
25.05.2019 21:00:00 16,0 9,0 15 8 26 14 NW 0 0,0
25.05.2019 20:00:00 17,0 9,7 18 10 34 18 NNW 24 -
25.05.2019 19:00:00 19,0 8,9 18 10 29 16 N 12 0,0
25.05.2019 18:00:00 19,6 6,0 9 5 26 14 N 6 0,0
25.05.2019 17:00:00 20,1 6,8 13 7 29 16 N 12 0,0
25.05.2019 16:00:00 20,7 7,0 16 9 29 16 N 36 0,0
25.05.2019 15:00:00 19,9 8,6 15 8 26 14 N 6 0,0
25.05.2019 14:00:00 20,6 9,2 16 9 28 15 NNW 60 -
25.05.2019 13:00:00 19,4 10,4 15 8 24 13 N 36 0,0
25.05.2019 12:00:00 18,8 10,9 16 9 22 12 NNW 36 0,0
25.05.2019 11:00:00 17,5 9,9 8 4 21 11 NE 36 0,0
25.05.2019 10:00:00 15,5 10,9 9 5 15 8 NNW 24 0,0
25.05.2019 09:00:00 13,9 10,3 5 3 11 6 NNW 30 0,0
25.05.2019 08:00:00 13,1 9,7 0 0 4 2 N 60 -
25.05.2019 07:00:00 9,7 8,5 0 0 4 2 N 18 0,0
25.05.2019 06:00:00 7,2 6,3 0 0 5 3 N 0 0,0
25.05.2019 05:00:00 8,5 7,7 4 2 5 3 ESE 0 0,0
25.05.2019 04:00:00 9,3 8,2 0 0 4 2 N 0 0,0
25.05.2019 03:00:00 10,0 8,6 2 1 4 2 ESE 0 0,0
25.05.2019 02:00:00 10,2 8,8 4 2 5 3 E 0 -
25.05.2019 01:00:00 11,1 8,8 2 1 8 4 ESE 0 0,0
25.05.2019 00:00:00 12,0 9,2 2 1 4 2 SE 0 0,0
24.05.2019 23:00:00 13,4 9,4 4 2 4 2 ESE 0 0,0
24.05.2019 22:00:00 15,1 9,7 0 0 5 3 N 0 0,0
24.05.2019 21:00:00 18,4 9,7 4 2 9 5 ENE 24 0,0
24.05.2019 20:00:00 20,8 7,4 8 4 18 10 NNE 30 -
24.05.2019 19:00:00 22,1 7,9 13 7 29 16 N 60 0,0
24.05.2019 18:00:00 22,8 8,5 11 6 24 13 N 60 0,0
24.05.2019 17:00:00 22,2 6,8 13 7 28 15 N 54 0,0
24.05.2019 16:00:00 22,1 7,5 13 7 26 14 NW 48 0,0
24.05.2019 15:00:00 22,2 7,6 8 4 24 13 WNW 54 0,0
24.05.2019 14:00:00 21,7 8,9 11 6 22 12 N 54 -
24.05.2019 13:00:00 20,7 9,0 11 6 18 10 N 30 0,0
24.05.2019 12:00:00 20,0 8,0 13 7 22 12 N 42 0,0
24.05.2019 11:00:00 18,8 9,0 8 4 15 8 N 60 0,0
24.05.2019 10:00:00 16,7 9,6 4 2 8 4 NW 30 0,0
24.05.2019 09:00:00 15,4 9,5 0 0 5 3 N 42 0,0
24.05.2019 08:00:00 13,4 9,4 0 0 4 2 N 60 -
24.05.2019 07:00:00 9,9 8,7 0 0 5 3 N 12 0,0
24.05.2019 06:00:00 8,8 7,9 4 2 8 4 ESE 0 0,0
24.05.2019 05:00:00 9,1 8,0 4 2 5 3 ESE 0 0,0
24.05.2019 04:00:00 9,5 8,3 2 1 4 2 ESE 0 0,0
24.05.2019 03:00:00 9,5 8,4 0 0 4 2 N 0 0,0
24.05.2019 02:00:00 10,1 8,2 0 0 5 3 N 0 -
24.05.2019 01:00:00 10,6 8,0 0 0 4 2 N 0 0,0
24.05.2019 00:00:00 12,2 8,5 2 1 4 2 E 0 0,0
23.05.2019 23:00:00 13,1 8,8 2 1 4 2 E 0 0,0
23.05.2019 22:00:00 13,8 8,8 0 0 4 2 N 0 0,0
23.05.2019 21:00:00 17,2 8,1 5 3 18 10 N 0 0,0
23.05.2019 20:00:00 18,4 8,1 9 5 26 14 N 24 -
23.05.2019 19:00:00 20,6 7,9 16 9 26 14 N 54 0,0
23.05.2019 18:00:00 21,5 8,0 13 7 26 14 NNW 60 0,0
23.05.2019 17:00:00 21,7 7,5 11 6 22 12 N 60 0,0
23.05.2019 16:00:00 21,6 7,8 13 7 29 16 N 60 0,0
23.05.2019 15:00:00 21,0 8,6 13 7 28 15 N 60 0,0
23.05.2019 14:00:00 21,1 6,6 8 4 24 13 N 60 -
23.05.2019 13:00:00 20,0 7,0 11 6 29 16 N 60 0,0
23.05.2019 12:00:00 18,9 6,0 15 8 22 12 N 60 0,0
23.05.2019 11:00:00 18,4 7,2 8 4 16 9 ENE 60 0,0
23.05.2019 10:00:00 16,3 9,0 4 2 9 5 NW 60 0,0
23.05.2019 09:00:00 13,0 8,1 4 2 8 4 NNW 60 0,0
23.05.2019 08:00:00 9,7 6,4 0 0 4 2 N 48 -
23.05.2019 07:00:00 6,4 5,0 0 0 4 2 N 24 0,0
23.05.2019 06:00:00 4,8 4,1 2 1 4 2 E 0 0,0
23.05.2019 05:00:00 4,9 4,2 4 2 4 2 E 0 0,0
23.05.2019 04:00:00 5,6 4,6 2 1 4 2 E 0 0,0
23.05.2019 03:00:00 5,9 4,4 0 0 11 6 N 0 0,0
23.05.2019 02:00:00 6,4 5,2 5 3 8 4 E 0 -
23.05.2019 01:00:00 7,0 5,3 2 1 4 2 ESE 0 0,0
23.05.2019 00:00:00 8,1 5,9 4 2 4 2 ESE 0 0,0
22.05.2019 23:00:00 9,4 6,1 4 2 4 2 ESE 0 0,0
22.05.2019 22:00:00 11,2 5,7 2 1 5 3 SE 0 0,0
22.05.2019 21:00:00 14,5 6,1 4 2 13 7 E 36 0,0
22.05.2019 20:00:00 18,1 3,9 8 4 21 11 NNE 54 -
22.05.2019 19:00:00 18,4 2,2 13 7 24 13 N 60 0,0
22.05.2019 18:00:00 19,1 1,1 11 6 24 13 NNE 60 0,0
22.05.2019 17:00:00 18,9 2,3 15 8 26 14 N 60 0,0
22.05.2019 16:00:00 19,1 6,2 13 7 28 15 NNW 54 0,0
22.05.2019 15:00:00 18,2 4,4 11 6 24 13 N 54 0,0
22.05.2019 14:00:00 17,8 4,7 13 7 26 14 NNW 60 -
22.05.2019 13:00:00 16,9 4,2 13 7 24 13 NNW 60 0,0
22.05.2019 12:00:00 16,6 7,0 4 2 15 8 NE 54 0,0
22.05.2019 11:00:00 14,9 7,0 8 4 16 9 NW 60 0,0
22.05.2019 10:00:00 13,2 7,0 8 4 13 7 NNW 60 0,0
22.05.2019 09:00:00 12,0 9,9 0 0 4 2 N 60 0,0
22.05.2019 08:00:00 9,2 9,1 0 0 4 2 N 60 -
22.05.2019 07:00:00 6,6 6,6 2 1 5 3 E 18 0,0
22.05.2019 06:00:00 5,6 5,6 4 2 5 3 ESE 0 0,0
22.05.2019 05:00:00 6,6 6,6 2 1 8 4 SE 0 0,0
22.05.2019 04:00:00 7,9 7,9 0 0 4 2 N 0 0,0
22.05.2019 03:00:00 8,0 8,0 0 0 4 2 N 0 0,2
22.05.2019 02:00:00 8,0 7,9 0 0 4 2 N 0 -
22.05.2019 01:00:00 9,0 8,9 2 1 5 3 SSE 0 0,0
22.05.2019 00:00:00 9,0 8,5 0 0 4 2 N 0 0,0
21.05.2019 23:00:00 10,7 10,2 2 1 4 2 SE 0 0,0
21.05.2019 22:00:00 11,6 11,0 2 1 4 2 E 0 0,0
21.05.2019 21:00:00 13,3 11,5 4 2 9 5 ENE 0 0,0
21.05.2019 20:00:00 14,2 11,9 5 3 28 15 ENE 0 -
21.05.2019 19:00:00 16,7 12,6 2 1 18 10 NW 6 0,2
21.05.2019 18:00:00 15,8 12,9 5 3 26 14 NE 6 1,0
21.05.2019 17:00:00 17,8 9,7 16 9 29 16 NNW 18 0,0
21.05.2019 16:00:00 17,8 10,4 18 10 29 16 NNW 12 0,0
21.05.2019 15:00:00 16,9 10,5 11 6 21 11 NW 0 0,0
21.05.2019 14:00:00 15,6 9,9 15 8 28 15 WNW 6 -
21.05.2019 13:00:00 14,8 10,4 15 8 28 15 W 0 0,0
21.05.2019 12:00:00 12,7 9,5 15 8 24 13 W 0 0,0
21.05.2019 11:00:00 11,7 8,9 16 9 26 14 W 0 0,0
21.05.2019 10:00:00 12,1 9,5 11 6 28 15 W 0 0,0
21.05.2019 09:00:00 11,0 9,6 15 8 26 14 W 0 0,0
21.05.2019 08:00:00 10,4 9,9 9 5 15 8 SW 0 -
21.05.2019 07:00:00 10,3 9,5 9 5 18 10 SW 0 0,0
21.05.2019 06:00:00 10,3 9,5 11 6 21 11 W 0 0,0
21.05.2019 05:00:00 10,3 9,7 9 5 18 10 WSW 0 0,0
21.05.2019 04:00:00 10,5 9,9 9 5 16 9 WSW 0 0,0
21.05.2019 03:00:00 10,5 9,7 9 5 18 10 WSW 0 0,2
21.05.2019 02:00:00 10,5 9,9 9 5 22 12 WSW 0 -
21.05.2019 01:00:00 10,7 9,9 9 5 18 10 SW 0 0,0
21.05.2019 00:00:00 10,7 9,9 11 6 18 10 WSW 0 0,0
20.05.2019 23:00:00 11,0 10,1 11 6 18 10 W 0 0,2
20.05.2019 22:00:00 11,2 10,3 9 5 22 12 W 0 0,0
20.05.2019 21:00:00 11,3 10,4 13 7 22 12 WSW 0 0,0
20.05.2019 20:00:00 12,1 10,2 15 8 28 15 WNW 0 -
20.05.2019 19:00:00 12,5 10,4 15 8 24 13 WNW 0 0,0
20.05.2019 18:00:00 12,7 11,1 9 5 29 16 WNW 0 0,0
20.05.2019 17:00:00 13,3 11,0 16 9 28 15 W 0 0,0

tt = Température de l'air
td = dewpoint
ff = Vitesse du vent
fx = gusts
dd = Direction du vent
sd = Ensoleillement
rr = Quantités de précipitations

stations d'obs. à proximité